Anzahl Datensätze: 281
min. Temperatur: -1.4 °C
max. Temperatur: 7.5 °C
max. Windgeschwindigkeit: 7.6 km/h
Niederschlagsumme: 0.4 mm
| Datum |
Zeit |
Temp °C |
Feuchte % |
Taupunkt °C |
Luftdruck hPa |
Wind km/h |
Windrichtung |
Strahlung w/m² |
Niederschlag mm |
|---|---|---|---|---|---|---|---|---|---|
| 17.11.2025 | 00:00 | 7.2 | 90 | 5.7 | 1007.8 | 1.3 | WNW | 0 | 0.0 |
| 17.11.2025 | 00:05 | 7.1 | 90 | 5.6 | 1007.9 | 0.4 | WNW | 0 | 0.0 |
| 17.11.2025 | 00:10 | 7.1 | 90 | 5.6 | 1007.9 | 0.9 | WNW | 0 | 0.0 |
| 17.11.2025 | 00:15 | 7.0 | 90 | 5.5 | 1007.9 | 1.8 | NW | 0 | 0.0 |
| 17.11.2025 | 00:20 | 7.0 | 90 | 5.5 | 1007.8 | 0.4 | NW | 0 | 0.0 |
| 17.11.2025 | 00:25 | 7.0 | 90 | 5.5 | 1007.8 | 3.1 | NW | 0 | 0.0 |
| 17.11.2025 | 00:30 | 6.9 | 90 | 5.4 | 1007.8 | 1.8 | W | 0 | 0.0 |
| 17.11.2025 | 00:35 | 6.9 | 90 | 5.4 | 1007.8 | 1.3 | NW | 0 | 0.0 |
| 17.11.2025 | 00:40 | 6.8 | 90 | 5.3 | 1007.8 | 0.4 | NNW | 0 | 0.0 |
| 17.11.2025 | 00:45 | 6.8 | 90 | 5.3 | 1007.8 | 2.7 | NNW | 0 | 0.0 |
| 17.11.2025 | 00:50 | 6.8 | 90 | 5.3 | 1007.9 | 0.4 | WNW | 0 | 0.0 |
| 17.11.2025 | 00:55 | 6.8 | 90 | 5.3 | 1007.9 | 1.3 | NW | 0 | 0.0 |
| 17.11.2025 | 01:00 | 6.7 | 90 | 5.2 | 1007.9 | 0.9 | SSW | 0 | 0.0 |
| 17.11.2025 | 01:05 | 6.6 | 90 | 5.1 | 1008.0 | 1.3 | WNW | 0 | 0.0 |
| 17.11.2025 | 01:10 | 6.6 | 90 | 5.1 | 1008.0 | 0.4 | NO | 0 | 0.0 |
| 17.11.2025 | 01:15 | 6.6 | 90 | 5.1 | 1008.0 | 0.9 | NW | 0 | 0.0 |
| 17.11.2025 | 01:20 | 6.5 | 90 | 5.0 | 1008.0 | 1.3 | WNW | 0 | 0.0 |
| 17.11.2025 | 01:25 | 6.5 | 90 | 5.0 | 1008.0 | 0.9 | N | 0 | 0.0 |
| 17.11.2025 | 01:30 | 6.4 | 90 | 4.9 | 1008.0 | 0.4 | N | 0 | 0.0 |
| 17.11.2025 | 01:35 | 6.4 | 90 | 4.9 | 1008.0 | 0.9 | NW | 0 | 0.0 |
| 17.11.2025 | 01:40 | 6.4 | 90 | 4.9 | 1008.0 | 1.3 | NW | 0 | 0.0 |
| 17.11.2025 | 01:45 | 6.4 | 89 | 4.7 | 1008.0 | 1.3 | NW | 0 | 0.0 |
| 17.11.2025 | 01:50 | 6.3 | 89 | 4.6 | 1008.0 | 1.3 | NNW | 0 | 0.0 |
| 17.11.2025 | 01:55 | 6.3 | 89 | 4.6 | 1008.0 | 0.9 | W | 0 | 0.0 |
| 17.11.2025 | 02:00 | 6.2 | 89 | 4.5 | 1008.0 | 1.3 | WNW | 0 | 0.0 |
| 17.11.2025 | 02:05 | 6.2 | 89 | 4.5 | 1008.1 | 1.3 | W | 0 | 0.0 |
| 17.11.2025 | 02:10 | 6.1 | 90 | 4.6 | 1008.0 | 2.2 | WNW | 0 | 0.0 |
| 17.11.2025 | 02:15 | 6.1 | 90 | 4.6 | 1008.0 | 0.4 | WNW | 0 | 0.0 |
| 17.11.2025 | 02:21 | 6.1 | 90 | 4.6 | 1008.0 | 0.4 | NW | 0 | 0.0 |
| 17.11.2025 | 02:26 | 6.1 | 90 | 4.6 | 1008.0 | 0.4 | NW | 0 | 0.0 |
| 17.11.2025 | 02:31 | 6.1 | 90 | 4.6 | 1008.0 | 0.9 | NW | 0 | 0.0 |
| 17.11.2025 | 02:36 | 6.0 | 90 | 4.5 | 1007.9 | 0.4 | NNW | 0 | 0.0 |
| 17.11.2025 | 02:41 | 6.0 | 90 | 4.5 | 1007.9 | 0.4 | NW | 0 | 0.0 |
| 17.11.2025 | 02:46 | 6.0 | 90 | 4.5 | 1007.9 | 0.4 | NW | 0 | 0.0 |
| 17.11.2025 | 02:51 | 6.0 | 90 | 4.5 | 1007.9 | 0.9 | NW | 0 | 0.0 |
| 17.11.2025 | 02:56 | 6.0 | 90 | 4.5 | 1007.9 | 1.3 | NW | 0 | 0.0 |
| 17.11.2025 | 03:01 | 6.0 | 90 | 4.5 | 1008.0 | 0.9 | NW | 0 | 0.0 |
| 17.11.2025 | 03:06 | 6.0 | 90 | 4.5 | 1007.9 | 0.9 | NW | 0 | 0.0 |
| 17.11.2025 | 03:11 | 6.0 | 90 | 4.5 | 1007.8 | 0.9 | NNW | 0 | 0.0 |
| 17.11.2025 | 03:16 | 6.0 | 89 | 4.3 | 1007.8 | 1.3 | NW | 0 | 0.0 |
| 17.11.2025 | 03:21 | 5.9 | 89 | 4.2 | 1007.7 | 1.3 | NW | 0 | 0.0 |
| 17.11.2025 | 03:26 | 5.9 | 89 | 4.2 | 1007.7 | 0.0 | NW | 0 | 0.0 |
| 17.11.2025 | 03:31 | 5.9 | 89 | 4.2 | 1007.7 | 1.3 | NNW | 0 | 0.0 |
| 17.11.2025 | 03:36 | 5.9 | 89 | 4.2 | 1007.7 | 0.9 | NW | 0 | 0.0 |
| 17.11.2025 | 03:41 | 5.8 | 89 | 4.1 | 1007.7 | 1.3 | NNW | 0 | 0.0 |
| 17.11.2025 | 03:46 | 5.8 | 89 | 4.1 | 1007.7 | 1.3 | NW | 0 | 0.0 |
| 17.11.2025 | 03:51 | 5.8 | 89 | 4.1 | 1007.8 | 1.8 | NW | 0 | 0.0 |
| 17.11.2025 | 03:56 | 5.6 | 89 | 3.9 | 1007.9 | 1.8 | NW | 0 | 0.0 |
| 17.11.2025 | 04:01 | 5.5 | 89 | 3.8 | 1007.9 | 2.2 | NW | 0 | 0.0 |
| 17.11.2025 | 04:06 | 5.5 | 89 | 3.8 | 1008.0 | 0.4 | NW | 0 | 0.0 |
| 17.11.2025 | 04:11 | 5.5 | 89 | 3.8 | 1008.0 | 1.3 | NW | 0 | 0.0 |
| 17.11.2025 | 04:16 | 5.4 | 89 | 3.7 | 1008.1 | 2.2 | WNW | 0 | 0.0 |
| 17.11.2025 | 04:21 | 5.3 | 88 | 3.5 | 1008.1 | 4.0 | WNW | 0 | 0.0 |
| 17.11.2025 | 04:26 | 5.2 | 88 | 3.4 | 1008.2 | 0.9 | WNW | 0 | 0.0 |
| 17.11.2025 | 04:31 | 5.1 | 88 | 3.3 | 1008.3 | 1.3 | SSW | 0 | 0.0 |
| 17.11.2025 | 04:36 | 4.9 | 87 | 2.9 | 1008.4 | 1.8 | NNO | 0 | 0.0 |
| 17.11.2025 | 04:41 | 4.7 | 86 | 2.6 | 1008.5 | 1.3 | N | 0 | 0.0 |
| 17.11.2025 | 04:46 | 4.5 | 85 | 2.2 | 1008.5 | 1.8 | NNW | 0 | 0.0 |
| 17.11.2025 | 04:51 | 4.3 | 83 | 1.7 | 1008.6 | 0.9 | WNW | 0 | 0.0 |
| 17.11.2025 | 04:56 | 4.0 | 82 | 1.2 | 1008.7 | 1.3 | NW | 0 | 0.0 |
| 17.11.2025 | 05:01 | 3.9 | 81 | 0.9 | 1008.7 | 0.4 | NW | 0 | 0.0 |
| 17.11.2025 | 05:07 | 3.7 | 81 | 0.7 | 1008.8 | 1.3 | WNW | 0 | 0.0 |
| 17.11.2025 | 05:12 | 3.6 | 81 | 0.6 | 1008.9 | 0.9 | NNW | 0 | 0.0 |
| 17.11.2025 | 05:17 | 3.4 | 81 | 0.4 | 1008.9 | 0.9 | NNW | 0 | 0.0 |
| 17.11.2025 | 05:22 | 3.3 | 81 | 0.4 | 1009.1 | 0.4 | NW | 0 | 0.0 |
| 17.11.2025 | 05:27 | 3.1 | 81 | 0.2 | 1009.0 | 0.0 | NW | 0 | 0.0 |
| 17.11.2025 | 05:32 | 2.9 | 82 | 0.1 | 1009.1 | 0.4 | NNW | 0 | 0.0 |
| 17.11.2025 | 05:37 | 2.8 | 82 | 0.0 | 1009.2 | 0.9 | NW | 0 | 0.0 |
| 17.11.2025 | 05:42 | 2.7 | 82 | -0.1 | 1009.2 | 0.4 | NNW | 0 | 0.0 |
| 17.11.2025 | 05:47 | 2.6 | 83 | 0.0 | 1009.2 | 0.4 | NNW | 0 | 0.0 |
| 17.11.2025 | 05:52 | 2.5 | 83 | -0.1 | 1009.2 | 0.4 | NNW | 0 | 0.0 |
| 17.11.2025 | 05:57 | 2.4 | 83 | -0.2 | 1009.2 | 0.4 | NNW | 0 | 0.0 |
| 17.11.2025 | 06:02 | 2.3 | 83 | -0.3 | 1009.3 | 0.0 | NNW | 0 | 0.0 |
| 17.11.2025 | 06:07 | 2.1 | 84 | -0.3 | 1009.3 | 0.0 | NNW | 0 | 0.0 |
| 17.11.2025 | 06:12 | 2.0 | 84 | -0.4 | 1009.3 | 0.0 | NNW | 0 | 0.0 |
| 17.11.2025 | 06:17 | 1.8 | 84 | -0.6 | 1009.3 | 0.0 | NNW | 0 | 0.0 |
| 17.11.2025 | 06:22 | 1.7 | 84 | -0.7 | 1009.4 | 0.0 | NNW | 0 | 0.0 |
| 17.11.2025 | 06:27 | 1.5 | 84 | -0.9 | 1009.5 | 0.0 | NNW | 0 | 0.0 |
| 17.11.2025 | 06:32 | 1.4 | 85 | -0.8 | 1009.5 | 0.0 | NNW | 0 | 0.0 |
| 17.11.2025 | 06:37 | 1.4 | 85 | -0.8 | 1009.6 | 0.0 | NNW | 0 | 0.0 |
| 17.11.2025 | 06:42 | 1.3 | 86 | -0.8 | 1009.6 | 0.0 | NNW | 0 | 0.0 |
| 17.11.2025 | 06:47 | 1.3 | 86 | -0.8 | 1009.7 | 0.0 | NNW | 0 | 0.0 |
| 17.11.2025 | 06:52 | 1.3 | 86 | -0.8 | 1009.7 | 0.0 | NNW | 0 | 0.0 |
| 17.11.2025 | 06:57 | 1.2 | 87 | -0.7 | 1009.8 | 0.0 | NNW | 0 | 0.0 |
| 17.11.2025 | 07:02 | 1.2 | 87 | -0.7 | 1009.8 | 0.0 | NNW | 0 | 0.0 |
| 17.11.2025 | 07:07 | 1.2 | 87 | -0.7 | 1009.9 | 0.0 | NNW | 0 | 0.0 |
| 17.11.2025 | 07:12 | 1.3 | 88 | -0.5 | 1010.0 | 0.0 | NNW | 0 | 0.0 |
| 17.11.2025 | 07:17 | 1.3 | 88 | -0.5 | 1010.0 | 0.0 | NNW | 0 | 0.0 |
| 17.11.2025 | 07:22 | 1.4 | 88 | -0.4 | 1010.0 | 0.0 | NNW | 0 | 0.0 |
| 17.11.2025 | 07:27 | 1.5 | 88 | -0.3 | 1010.1 | 0.0 | NNW | 0 | 0.0 |
| 17.11.2025 | 07:32 | 1.5 | 89 | -0.1 | 1010.1 | 0.0 | NNW | 0 | 0.0 |
| 17.11.2025 | 07:37 | 1.6 | 89 | 0.0 | 1010.1 | 0.0 | NNW | 0 | 0.0 |
| 17.11.2025 | 07:42 | 1.6 | 89 | 0.0 | 1010.1 | 0.0 | NNW | 0 | 0.0 |
| 17.11.2025 | 07:47 | 1.7 | 89 | 0.1 | 1010.2 | 0.0 | NNW | 0 | 0.0 |
| 17.11.2025 | 07:52 | 1.7 | 89 | 0.1 | 1010.3 | 0.0 | NNW | 0 | 0.0 |
| 17.11.2025 | 07:57 | 1.7 | 89 | 0.1 | 1010.4 | 0.0 | NNW | 5 | 0.0 |
| 17.11.2025 | 08:02 | 1.8 | 89 | 0.2 | 1010.5 | 0.0 | NNW | 5 | 0.0 |
| 17.11.2025 | 08:07 | 1.8 | 89 | 0.2 | 1010.5 | 0.0 | NNW | 7 | 0.0 |
| 17.11.2025 | 08:12 | 1.8 | 89 | 0.2 | 1010.6 | 0.4 | NNW | 12 | 0.0 |
| 17.11.2025 | 08:17 | 1.9 | 89 | 0.3 | 1010.6 | 1.3 | NNW | 32 | 0.0 |
| 17.11.2025 | 08:28 | 2.3 | 89 | 0.7 | 1010.9 | 0.4 | WSW | 42 | 0.0 |
| 17.11.2025 | 08:33 | 2.5 | 89 | 0.9 | 1010.8 | 0.9 | WSW | 39 | 0.0 |
| 17.11.2025 | 08:38 | 2.6 | 89 | 1.0 | 1010.8 | 0.0 | WSW | 70 | 0.0 |
| 17.11.2025 | 08:43 | 2.8 | 89 | 1.2 | 1010.9 | 0.4 | WSW | 72 | 0.0 |
| 17.11.2025 | 08:48 | 3.0 | 89 | 1.4 | 1011.0 | 0.4 | WSW | 69 | 0.0 |
| 17.11.2025 | 08:58 | 3.5 | 88 | 1.7 | 1010.9 | 0.0 | NW | 54 | 0.0 |
| 17.11.2025 | 09:03 | 3.8 | 88 | 2.0 | 1011.0 | 0.9 | WNW | 58 | 0.0 |
| 17.11.2025 | 09:08 | 4.0 | 87 | 2.0 | 1011.0 | 0.4 | NNW | 58 | 0.0 |
| 17.11.2025 | 09:13 | 4.0 | 87 | 2.0 | 1011.1 | 0.4 | WNW | 62 | 0.0 |
| 17.11.2025 | 09:18 | 4.0 | 87 | 2.0 | 1011.2 | 0.4 | WNW | 51 | 0.0 |
| 17.11.2025 | 09:23 | 4.0 | 87 | 2.0 | 1011.3 | 0.9 | NW | 76 | 0.0 |
| 17.11.2025 | 09:28 | 4.0 | 87 | 2.0 | 1011.4 | 0.9 | W | 74 | 0.0 |
| 17.11.2025 | 09:33 | 4.0 | 88 | 2.2 | 1011.5 | 1.3 | WNW | 56 | 0.0 |
| 17.11.2025 | 09:38 | 4.0 | 88 | 2.2 | 1011.5 | 2.2 | WNW | 54 | 0.0 |
| 17.11.2025 | 09:43 | 4.0 | 88 | 2.2 | 1011.5 | 0.4 | NW | 67 | 0.0 |
| 17.11.2025 | 09:48 | 4.1 | 88 | 2.3 | 1011.7 | 1.3 | NW | 62 | 0.0 |
| 17.11.2025 | 09:58 | 4.3 | 88 | 2.5 | 1011.7 | 0.4 | W | 84 | 0.0 |
| 17.11.2025 | 10:08 | 4.4 | 88 | 2.6 | 1011.9 | 1.3 | NW | 72 | 0.0 |
| 17.11.2025 | 10:13 | 4.5 | 88 | 2.7 | 1012.0 | 1.8 | NW | 88 | 0.0 |
| 17.11.2025 | 10:18 | 4.5 | 88 | 2.7 | 1012.0 | 0.9 | W | 91 | 0.0 |
| 17.11.2025 | 10:23 | 4.6 | 88 | 2.8 | 1012.0 | 1.3 | NNW | 88 | 0.0 |
| 17.11.2025 | 10:28 | 4.6 | 89 | 2.9 | 1012.2 | 0.9 | SSO | 107 | 0.0 |
| 17.11.2025 | 10:33 | 4.8 | 88 | 3.0 | 1012.2 | 1.3 | NW | 95 | 0.0 |
| 17.11.2025 | 10:38 | 4.8 | 88 | 3.0 | 1012.2 | 0.9 | NW | 121 | 0.0 |
| 17.11.2025 | 10:43 | 4.9 | 88 | 3.1 | 1012.2 | 0.9 | NNW | 114 | 0.0 |
| 17.11.2025 | 10:48 | 5.1 | 88 | 3.3 | 1012.1 | 1.3 | W | 236 | 0.0 |
| 17.11.2025 | 10:53 | 5.4 | 88 | 3.6 | 1012.2 | 1.3 | NNW | 329 | 0.0 |
| 17.11.2025 | 10:58 | 5.6 | 87 | 3.6 | 1012.1 | 0.9 | WSW | 132 | 0.0 |
| 17.11.2025 | 11:04 | 5.8 | 87 | 3.8 | 1012.2 | 1.8 | NW | 162 | 0.0 |
| 17.11.2025 | 11:09 | 6.0 | 86 | 3.8 | 1012.2 | 1.3 | W | 123 | 0.0 |
| 17.11.2025 | 11:14 | 6.0 | 85 | 3.7 | 1012.3 | 1.3 | NNO | 158 | 0.0 |
| 17.11.2025 | 11:19 | 6.0 | 85 | 3.7 | 1012.3 | 1.3 | NNW | 72 | 0.0 |
| 17.11.2025 | 11:24 | 6.1 | 85 | 3.8 | 1012.4 | 1.3 | NW | 343 | 0.0 |
| 17.11.2025 | 11:29 | 6.3 | 85 | 4.0 | 1012.4 | 1.3 | NW | 471 | 0.0 |
| 17.11.2025 | 11:34 | 6.6 | 84 | 4.1 | 1012.5 | 1.3 | WNW | 267 | 0.0 |
| 17.11.2025 | 11:39 | 6.7 | 83 | 4.0 | 1012.5 | 1.3 | NW | 197 | 0.0 |
| 17.11.2025 | 11:44 | 6.6 | 82 | 3.7 | 1012.6 | 5.4 | NW | 186 | 0.0 |
| 17.11.2025 | 11:49 | 6.4 | 81 | 3.4 | 1012.7 | 5.4 | NW | 76 | 0.0 |
| 17.11.2025 | 11:54 | 6.0 | 82 | 3.2 | 1012.7 | 1.3 | W | 285 | 0.0 |
| 17.11.2025 | 11:59 | 6.0 | 83 | 3.3 | 1012.7 | 1.8 | WNW | 128 | 0.0 |
| 17.11.2025 | 12:04 | 6.2 | 83 | 3.5 | 1012.8 | 3.6 | WNW | 214 | 0.0 |
| 17.11.2025 | 12:09 | 6.4 | 83 | 3.7 | 1012.7 | 1.3 | WNW | 387 | 0.0 |
| 17.11.2025 | 12:14 | 6.5 | 82 | 3.6 | 1012.7 | 3.1 | WSW | 429 | 0.0 |
| 17.11.2025 | 12:19 | 6.5 | 81 | 3.5 | 1012.7 | 1.3 | WNW | 364 | 0.0 |
| 17.11.2025 | 12:24 | 6.5 | 81 | 3.5 | 1012.8 | 0.9 | NW | 345 | 0.0 |
| 17.11.2025 | 12:29 | 6.6 | 81 | 3.6 | 1012.8 | 1.3 | NW | 357 | 0.0 |
| 17.11.2025 | 12:34 | 6.9 | 81 | 3.9 | 1012.8 | 0.4 | NW | 403 | 0.0 |
| 17.11.2025 | 12:39 | 7.1 | 80 | 3.9 | 1012.9 | 1.8 | NW | 526 | 0.0 |
| 17.11.2025 | 12:44 | 7.5 | 79 | 4.1 | 1012.9 | 0.9 | NW | 341 | 0.0 |
| 17.11.2025 | 12:49 | 7.4 | 77 | 3.6 | 1013.0 | 4.9 | NNW | 111 | 0.0 |
| 17.11.2025 | 12:54 | 6.9 | 75 | 2.8 | 1013.1 | 5.8 | NW | 107 | 0.0 |
| 17.11.2025 | 12:59 | 6.6 | 77 | 2.9 | 1013.3 | 5.8 | NW | 70 | 0.0 |
| 17.11.2025 | 13:04 | 6.1 | 80 | 2.9 | 1013.5 | 3.1 | WNW | 56 | 0.0 |
| 17.11.2025 | 13:09 | 5.4 | 82 | 2.6 | 1013.6 | 1.3 | NW | 60 | 0.2 |
| 17.11.2025 | 13:14 | 4.9 | 84 | 2.4 | 1013.6 | 0.4 | NW | 348 | 0.2 |
| 17.11.2025 | 13:24 | 5.0 | 87 | 3.0 | 1013.5 | 0.9 | NW | 309 | 0.2 |
| 17.11.2025 | 13:29 | 5.1 | 87 | 3.1 | 1013.5 | 2.2 | SW | 306 | 0.2 |
| 17.11.2025 | 13:34 | 5.1 | 87 | 3.1 | 1013.7 | 0.4 | SW | 308 | 0.2 |
| 17.11.2025 | 13:39 | 5.4 | 87 | 3.4 | 1013.8 | 1.8 | N | 234 | 0.2 |
| 17.11.2025 | 13:45 | 5.5 | 87 | 3.5 | 1013.8 | 0.4 | NW | 404 | 0.2 |
| 17.11.2025 | 13:50 | 5.8 | 87 | 3.8 | 1013.8 | 0.9 | NW | 334 | 0.2 |
| 17.11.2025 | 13:55 | 6.0 | 87 | 4.0 | 1013.9 | 0.9 | NW | 63 | 0.2 |
| 17.11.2025 | 14:00 | 6.0 | 86 | 3.8 | 1014.0 | 2.7 | NW | 179 | 0.2 |
| 17.11.2025 | 14:05 | 5.9 | 86 | 3.7 | 1013.9 | 0.9 | NW | 387 | 0.2 |
| 17.11.2025 | 14:10 | 6.0 | 85 | 3.7 | 1014.0 | 0.9 | NW | 299 | 0.2 |
| 17.11.2025 | 14:15 | 6.1 | 84 | 3.6 | 1014.1 | 2.2 | NNW | 272 | 0.2 |
| 17.11.2025 | 14:20 | 6.2 | 84 | 3.7 | 1014.3 | 1.3 | NW | 311 | 0.2 |
| 17.11.2025 | 14:25 | 6.3 | 82 | 3.5 | 1014.5 | 3.6 | NW | 178 | 0.2 |
| 17.11.2025 | 14:30 | 6.1 | 80 | 2.9 | 1014.7 | 7.2 | W | 111 | 0.2 |
| 17.11.2025 | 14:35 | 5.5 | 81 | 2.5 | 1015.0 | 2.2 | SW | 47 | 0.4 |
| 17.11.2025 | 14:40 | 4.6 | 81 | 1.6 | 1015.0 | 1.8 | NW | 53 | 0.4 |
| 17.11.2025 | 14:45 | 4.1 | 83 | 1.5 | 1015.0 | 0.9 | WNW | 51 | 0.4 |
| 17.11.2025 | 14:50 | 3.9 | 84 | 1.4 | 1015.0 | 1.3 | NW | 40 | 0.4 |
| 17.11.2025 | 14:55 | 3.7 | 85 | 1.4 | 1015.1 | 3.1 | W | 160 | 0.4 |
| 17.11.2025 | 15:00 | 3.7 | 85 | 1.4 | 1015.3 | 3.6 | NNW | 135 | 0.4 |
| 17.11.2025 | 15:05 | 3.8 | 86 | 1.7 | 1015.4 | 0.4 | NW | 135 | 0.4 |
| 17.11.2025 | 15:10 | 3.9 | 86 | 1.8 | 1015.5 | 0.9 | NW | 86 | 0.4 |
| 17.11.2025 | 15:15 | 4.0 | 86 | 1.9 | 1015.7 | 0.9 | NNW | 105 | 0.4 |
| 17.11.2025 | 15:20 | 4.1 | 86 | 2.0 | 1015.8 | 0.9 | NNW | 113 | 0.4 |
| 17.11.2025 | 15:25 | 4.2 | 86 | 2.1 | 1015.9 | 1.3 | NW | 86 | 0.4 |
| 17.11.2025 | 15:30 | 4.2 | 86 | 2.1 | 1016.0 | 1.3 | NNW | 91 | 0.4 |
| 17.11.2025 | 15:35 | 4.2 | 86 | 2.1 | 1016.1 | 0.4 | SSW | 95 | 0.4 |
| 17.11.2025 | 15:40 | 4.2 | 86 | 2.1 | 1016.2 | 2.2 | WSW | 46 | 0.4 |
| 17.11.2025 | 15:45 | 4.1 | 85 | 1.8 | 1016.2 | 1.8 | WSW | 26 | 0.4 |
| 17.11.2025 | 15:50 | 4.1 | 85 | 1.8 | 1016.2 | 0.9 | NW | 25 | 0.4 |
| 17.11.2025 | 15:56 | 4.1 | 85 | 1.8 | 1016.3 | 1.8 | NNW | 25 | 0.4 |
| 17.11.2025 | 16:01 | 4.1 | 85 | 1.8 | 1016.4 | 4.0 | NNW | 19 | 0.4 |
| 17.11.2025 | 16:06 | 4.0 | 84 | 1.5 | 1016.6 | 1.3 | NNW | 21 | 0.4 |
| 17.11.2025 | 16:11 | 4.0 | 83 | 1.4 | 1016.7 | 0.4 | NW | 19 | 0.4 |
| 17.11.2025 | 16:16 | 3.9 | 83 | 1.3 | 1016.8 | 2.2 | NW | 18 | 0.4 |
| 17.11.2025 | 16:21 | 3.9 | 82 | 1.1 | 1016.9 | 0.9 | SSW | 18 | 0.4 |
| 17.11.2025 | 16:26 | 3.9 | 82 | 1.1 | 1016.9 | 2.2 | NW | 16 | 0.4 |
| 17.11.2025 | 16:31 | 3.9 | 82 | 1.1 | 1017.1 | 0.9 | NW | 14 | 0.4 |
| 17.11.2025 | 16:36 | 3.8 | 83 | 1.2 | 1017.2 | 2.2 | NW | 12 | 0.4 |
| 17.11.2025 | 16:41 | 3.6 | 83 | 1.0 | 1017.3 | 1.8 | NW | 11 | 0.4 |
| 17.11.2025 | 16:46 | 3.6 | 83 | 1.0 | 1017.5 | 0.4 | NW | 14 | 0.4 |
| 17.11.2025 | 16:51 | 3.5 | 84 | 1.1 | 1017.7 | 0.9 | NNW | 9 | 0.4 |
| 17.11.2025 | 16:56 | 3.5 | 84 | 1.1 | 1017.7 | 1.3 | NW | 0 | 0.4 |
| 17.11.2025 | 17:01 | 3.5 | 85 | 1.2 | 1017.9 | 1.3 | NO | 0 | 0.4 |
| 17.11.2025 | 17:06 | 3.3 | 85 | 1.0 | 1017.9 | 1.3 | NNO | 0 | 0.4 |
| 17.11.2025 | 17:11 | 2.9 | 86 | 0.8 | 1018.0 | 1.8 | NNO | 0 | 0.4 |
| 17.11.2025 | 17:16 | 2.5 | 87 | 0.6 | 1018.1 | 1.3 | NO | 0 | 0.4 |
| 17.11.2025 | 17:21 | 2.3 | 88 | 0.5 | 1018.1 | 0.9 | NO | 0 | 0.4 |
| 17.11.2025 | 17:26 | 2.2 | 88 | 0.4 | 1018.1 | 0.4 | NNO | 0 | 0.4 |
| 17.11.2025 | 17:31 | 2.1 | 88 | 0.3 | 1018.1 | 0.4 | NNO | 0 | 0.4 |
| 17.11.2025 | 17:36 | 1.9 | 88 | 0.1 | 1018.2 | 0.4 | NNO | 0 | 0.4 |
| 17.11.2025 | 17:41 | 1.8 | 89 | 0.2 | 1018.3 | 0.4 | NNO | 0 | 0.4 |
| 17.11.2025 | 17:46 | 1.6 | 89 | 0.0 | 1018.4 | 0.4 | NNO | 0 | 0.4 |
| 17.11.2025 | 17:51 | 1.5 | 89 | -0.1 | 1018.6 | 0.4 | NNO | 0 | 0.4 |
| 17.11.2025 | 17:56 | 1.4 | 89 | -0.2 | 1018.7 | 0.4 | NNO | 0 | 0.4 |
| 17.11.2025 | 18:01 | 1.4 | 89 | -0.2 | 1018.9 | 0.0 | NNO | 0 | 0.4 |
| 17.11.2025 | 18:06 | 1.4 | 89 | -0.2 | 1019.1 | 0.4 | NNO | 0 | 0.4 |
| 17.11.2025 | 18:11 | 1.4 | 89 | -0.2 | 1019.1 | 0.0 | NNO | 0 | 0.4 |
| 17.11.2025 | 18:16 | 1.5 | 90 | 0.0 | 1019.1 | 0.0 | NNO | 0 | 0.4 |
| 17.11.2025 | 18:21 | 1.5 | 90 | 0.0 | 1019.2 | 0.0 | NNO | 0 | 0.4 |
| 17.11.2025 | 18:26 | 1.4 | 90 | -0.1 | 1019.3 | 0.0 | NNO | 0 | 0.4 |
| 17.11.2025 | 18:31 | 1.4 | 90 | -0.1 | 1019.5 | 0.0 | NNO | 0 | 0.4 |
| 17.11.2025 | 18:36 | 1.4 | 90 | -0.1 | 1019.5 | 0.4 | NNO | 0 | 0.4 |
| 17.11.2025 | 18:41 | 1.4 | 90 | -0.1 | 1019.6 | 0.4 | NNO | 0 | 0.4 |
| 17.11.2025 | 18:46 | 1.5 | 90 | 0.0 | 1019.7 | 0.4 | NNO | 0 | 0.4 |
| 17.11.2025 | 18:51 | 1.5 | 90 | 0.0 | 1019.8 | 1.3 | NNO | 0 | 0.4 |
| 17.11.2025 | 18:57 | 1.4 | 90 | -0.1 | 1019.8 | 0.0 | NNW | 0 | 0.4 |
| 17.11.2025 | 19:02 | 1.4 | 90 | -0.1 | 1020.0 | 0.4 | NNW | 0 | 0.4 |
| 17.11.2025 | 19:07 | 1.4 | 90 | -0.1 | 1020.0 | 0.0 | NNW | 0 | 0.4 |
| 17.11.2025 | 19:12 | 1.3 | 90 | -0.2 | 1020.1 | 0.0 | NNW | 0 | 0.4 |
| 17.11.2025 | 19:17 | 1.2 | 90 | -0.3 | 1020.1 | 0.0 | NNW | 0 | 0.4 |
| 17.11.2025 | 19:22 | 1.1 | 90 | -0.4 | 1020.3 | 0.0 | NNW | 0 | 0.4 |
| 17.11.2025 | 19:27 | 1.0 | 90 | -0.5 | 1020.4 | 0.4 | NNW | 0 | 0.4 |
| 17.11.2025 | 19:32 | 1.0 | 90 | -0.5 | 1020.4 | 0.0 | NNW | 0 | 0.4 |
| 17.11.2025 | 19:37 | 0.9 | 90 | -0.6 | 1020.4 | 0.0 | NNW | 0 | 0.4 |
| 17.11.2025 | 19:42 | 0.8 | 90 | -0.7 | 1020.6 | 0.0 | NNW | 0 | 0.4 |
| 17.11.2025 | 19:47 | 0.6 | 90 | -0.9 | 1020.6 | 0.0 | NNW | 0 | 0.4 |
| 17.11.2025 | 19:52 | 0.6 | 90 | -0.9 | 1020.8 | 0.0 | NNW | 0 | 0.4 |
| 17.11.2025 | 19:57 | 0.5 | 90 | -0.9 | 1020.8 | 0.0 | NNW | 0 | 0.4 |
| 17.11.2025 | 20:02 | 0.5 | 90 | -0.9 | 1020.9 | 0.0 | NNW | 0 | 0.4 |
| 17.11.2025 | 20:07 | 0.4 | 90 | -1.0 | 1020.9 | 0.0 | NNW | 0 | 0.4 |
| 17.11.2025 | 20:12 | 0.2 | 90 | -1.2 | 1020.9 | 0.0 | NNW | 0 | 0.4 |
| 17.11.2025 | 20:17 | 0.1 | 90 | -1.3 | 1021.0 | 0.0 | NNW | 0 | 0.4 |
| 17.11.2025 | 20:22 | 0.0 | 90 | -1.4 | 1021.0 | 0.0 | NNW | 0 | 0.4 |
| 17.11.2025 | 20:27 | -0.1 | 90 | -1.5 | 1021.0 | 0.0 | NNW | 0 | 0.4 |
| 17.11.2025 | 20:32 | -0.1 | 90 | -1.5 | 1021.1 | 0.0 | NNW | 0 | 0.4 |
| 17.11.2025 | 20:37 | -0.2 | 90 | -1.6 | 1021.1 | 0.0 | NNW | 0 | 0.4 |
| 17.11.2025 | 20:42 | -0.4 | 90 | -1.8 | 1021.1 | 0.0 | NNW | 0 | 0.4 |
| 17.11.2025 | 20:47 | -0.5 | 90 | -1.9 | 1021.2 | 0.0 | NNW | 0 | 0.4 |
| 17.11.2025 | 20:52 | -0.5 | 90 | -1.9 | 1021.3 | 0.0 | NNW | 0 | 0.4 |
| 17.11.2025 | 20:57 | -0.3 | 90 | -1.7 | 1021.4 | 0.4 | NNW | 0 | 0.4 |
| 17.11.2025 | 21:02 | -0.2 | 90 | -1.6 | 1021.5 | 0.0 | NNW | 0 | 0.4 |
| 17.11.2025 | 21:07 | -0.1 | 90 | -1.5 | 1021.4 | 0.4 | NNW | 0 | 0.4 |
| 17.11.2025 | 21:12 | -0.1 | 90 | -1.5 | 1021.4 | 0.4 | NNW | 0 | 0.4 |
| 17.11.2025 | 21:17 | -0.2 | 90 | -1.6 | 1021.4 | 0.0 | NNW | 0 | 0.4 |
| 17.11.2025 | 21:22 | -0.2 | 90 | -1.6 | 1021.4 | 0.0 | NNW | 0 | 0.4 |
| 17.11.2025 | 21:27 | -0.2 | 90 | -1.6 | 1021.5 | 0.0 | NNW | 0 | 0.4 |
| 17.11.2025 | 21:33 | -0.3 | 91 | -1.6 | 1021.5 | 0.0 | NNW | 0 | 0.4 |
| 17.11.2025 | 21:38 | -0.4 | 90 | -1.8 | 1021.6 | 0.0 | NNW | 0 | 0.4 |
| 17.11.2025 | 21:43 | -0.5 | 90 | -1.9 | 1021.7 | 0.0 | NNW | 0 | 0.4 |
| 17.11.2025 | 21:48 | -0.6 | 91 | -1.9 | 1021.7 | 0.0 | NNW | 0 | 0.4 |
| 17.11.2025 | 21:53 | -0.7 | 91 | -2.0 | 1021.7 | 0.0 | NNW | 0 | 0.4 |
| 17.11.2025 | 21:58 | -0.7 | 90 | -2.1 | 1021.8 | 0.0 | NNW | 0 | 0.4 |
| 17.11.2025 | 22:03 | -0.7 | 91 | -2.0 | 1021.8 | 0.0 | NNW | 0 | 0.4 |
| 17.11.2025 | 22:08 | -0.7 | 91 | -2.0 | 1021.9 | 0.0 | NNW | 0 | 0.4 |
| 17.11.2025 | 22:13 | -0.8 | 91 | -2.1 | 1021.8 | 0.0 | NNW | 0 | 0.4 |
| 17.11.2025 | 22:18 | -0.9 | 91 | -2.2 | 1021.9 | 0.0 | NNW | 0 | 0.4 |
| 17.11.2025 | 22:23 | -1.1 | 91 | -2.4 | 1021.9 | 0.0 | NNW | 0 | 0.4 |
| 17.11.2025 | 22:28 | -1.2 | 91 | -2.5 | 1021.9 | 0.0 | NNW | 0 | 0.4 |
| 17.11.2025 | 22:33 | -1.2 | 91 | -2.5 | 1022.0 | 0.0 | NNW | 0 | 0.4 |
| 17.11.2025 | 22:38 | -1.2 | 91 | -2.5 | 1021.9 | 0.0 | NNW | 0 | 0.4 |
| 17.11.2025 | 22:43 | -1.2 | 91 | -2.5 | 1021.9 | 0.0 | NNW | 0 | 0.4 |
| 17.11.2025 | 22:48 | -1.3 | 91 | -2.6 | 1021.9 | 0.0 | NNW | 0 | 0.4 |
| 17.11.2025 | 22:53 | -1.2 | 91 | -2.5 | 1022.0 | 0.0 | NNW | 0 | 0.4 |
| 17.11.2025 | 23:03 | -1.2 | 91 | -2.5 | 1022.0 | 0.0 | NNW | 0 | 0.4 |
| 17.11.2025 | 23:08 | -1.2 | 91 | -2.5 | 1022.1 | 0.0 | NNW | 0 | 0.4 |
| 17.11.2025 | 23:13 | -1.3 | 91 | -2.6 | 1022.0 | 0.0 | NNW | 0 | 0.4 |
| 17.11.2025 | 23:18 | -1.4 | 91 | -2.7 | 1022.1 | 0.0 | NNW | 0 | 0.4 |
| 17.11.2025 | 23:23 | -1.4 | 91 | -2.7 | 1022.2 | 0.4 | NNW | 0 | 0.4 |
| 17.11.2025 | 23:28 | -1.3 | 91 | -2.6 | 1022.2 | 0.9 | NNW | 0 | 0.4 |
| 17.11.2025 | 23:33 | -1.2 | 91 | -2.5 | 1022.2 | 0.4 | NNW | 0 | 0.4 |
| 17.11.2025 | 23:38 | -1.2 | 91 | -2.5 | 1022.3 | 0.4 | NNW | 0 | 0.4 |
| 17.11.2025 | 23:43 | -1.2 | 91 | -2.5 | 1022.3 | 0.9 | NNW | 0 | 0.4 |
| 17.11.2025 | 23:48 | -1.3 | 91 | -2.6 | 1022.4 | 0.4 | NNW | 0 | 0.4 |
| 17.11.2025 | 23:53 | -1.4 | 91 | -2.7 | 1022.5 | 0.0 | NNW | 0 | 0.4 |
| 17.11.2025 | 23:58 | -1.4 | 91 | -2.7 | 1022.6 | 0.0 | NNW | 0 | 0.4 |